createdAt,value
2023-03-20T00:01:30.131Z,83.80
2023-03-20T00:03:58.100Z,95.43
2023-03-20T00:06:28.911Z,81.90
2023-03-20T00:08:57.768Z,79.50
2023-03-20T00:11:30.786Z,83.07
2023-03-20T00:14:01.006Z,82.53
2023-03-20T00:16:37.147Z,81.63
2023-03-20T00:19:06.318Z,82.25
2023-03-20T00:21:34.385Z,82.50
2023-03-20T00:24:01.980Z,82.55
2023-03-20T00:26:34.783Z,82.10
2023-03-20T00:29:04.254Z,80.20
2023-03-20T00:31:37.878Z,79.75
2023-03-20T00:34:12.302Z,82.13
2023-03-20T00:36:39.685Z,81.95
2023-03-20T00:39:07.679Z,93.90
2023-03-20T00:41:50.014Z,93.57
2023-03-20T00:44:26.379Z,98.03
2023-03-20T00:47:27.156Z,102.60
2023-03-20T00:49:56.140Z,107.47
2023-03-20T00:52:23.963Z,103.50
2023-03-20T00:54:52.382Z,103.63
2023-03-20T00:57:24.154Z,92.80
2023-03-20T00:59:57.035Z,103.95
2023-03-20T01:02:29.031Z,105.57
2023-03-20T01:04:57.390Z,108.63
2023-03-20T01:07:26.710Z,115.47
2023-03-20T01:09:54.155Z,118.07
2023-03-20T01:12:21.292Z,134.98
2023-03-20T01:14:57.600Z,137.65
2023-03-20T01:17:27.053Z,147.40
2023-03-20T01:19:54.687Z,141.00
2023-03-20T01:22:22.119Z,139.70
2023-03-20T01:24:49.527Z,145.35
2023-03-20T01:27:19.012Z,139.13
2023-03-20T01:29:46.954Z,147.23
2023-03-20T01:32:19.999Z,162.50
2023-03-20T01:34:53.213Z,139.55
2023-03-20T01:37:27.983Z,141.73
2023-03-20T01:40:00.513Z,129.10
2023-03-20T01:42:28.856Z,124.75
2023-03-20T01:44:56.376Z,127.72
2023-03-20T01:47:26.121Z,136.10
2023-03-20T01:50:28.197Z,110.78
2023-03-20T01:53:22.547Z,115.78
2023-03-20T01:55:59.955Z,112.90
2023-03-20T01:58:41.467Z,113.85
2023-03-20T02:01:11.786Z,115.60
2023-03-20T02:03:42.942Z,113.20
2023-03-20T02:06:45.232Z,124.65
2023-03-20T02:09:32.698Z,119.88
2023-03-20T02:12:02.194Z,124.47
2023-03-20T02:14:31.661Z,134.23
2023-03-20T02:17:13.449Z,113.00
2023-03-20T02:20:16.402Z,117.72
2023-03-20T02:22:59.569Z,124.18
2023-03-20T02:26:05.622Z,122.85
2023-03-20T02:29:02.395Z,118.10
2023-03-20T02:32:08.613Z,118.82
2023-03-20T02:34:51.456Z,119.38
2023-03-20T02:37:33.659Z,117.60
2023-03-20T02:40:19.851Z,116.72
2023-03-20T02:42:53.674Z,111.47
2023-03-20T02:45:29.441Z,127.50
2023-03-20T02:48:15.461Z,120.43
2023-03-20T02:51:04.913Z,114.90
2023-03-20T02:53:41.039Z,114.35
2023-03-20T02:56:21.542Z,117.78
2023-03-20T02:59:02.548Z,121.30
2023-03-20T03:01:37.581Z,117.13
2023-03-20T03:04:12.144Z,122.97
2023-03-20T03:06:43.728Z,119.40
2023-03-20T03:09:18.935Z,113.78
2023-03-20T03:12:10.366Z,123.80
2023-03-20T03:15:01.351Z,121.30
2023-03-20T03:17:33.481Z,121.35
2023-03-20T03:20:05.921Z,127.70
2023-03-20T03:22:34.545Z,115.32
2023-03-20T03:25:02.322Z,116.65
2023-03-20T03:27:37.179Z,130.65
2023-03-20T03:30:16.521Z,115.40
2023-03-20T03:32:51.897Z,123.80
2023-03-20T03:35:22.077Z,117.85
2023-03-20T03:38:17.171Z,125.68
2023-03-20T03:40:51.402Z,123.80
2023-03-20T03:43:54.037Z,120.40
2023-03-20T03:46:33.597Z,119.90
2023-03-20T03:49:02.322Z,114.57
2023-03-20T03:51:33.163Z,121.20
2023-03-20T03:54:12.381Z,125.47
2023-03-20T03:56:43.199Z,127.78
2023-03-20T03:59:30.363Z,122.60
2023-03-20T04:02:01.475Z,116.00
2023-03-20T04:04:30.716Z,123.53
2023-03-20T04:06:58.212Z,121.18
2023-03-20T04:09:25.789Z,113.93
2023-03-20T04:11:53.910Z,116.25
2023-03-20T04:14:21.857Z,118.15
2023-03-20T04:16:49.142Z,117.95
2023-03-20T04:19:17.004Z,114.28
2023-03-20T04:21:46.028Z,118.47
2023-03-20T04:24:13.534Z,114.68
2023-03-20T04:26:40.975Z,114.32
2023-03-20T04:29:08.810Z,116.38
2023-03-20T04:34:37.964Z,113.45
2023-03-20T04:37:14.651Z,114.15
2023-03-20T04:39:51.027Z,116.20
2023-03-20T04:42:18.210Z,117.80
2023-03-20T04:44:46.036Z,127.05
2023-03-20T04:47:13.557Z,121.72
2023-03-20T04:49:43.581Z,116.53
2023-03-20T04:52:10.970Z,112.25
2023-03-20T04:54:43.437Z,122.82
2023-03-20T04:57:10.686Z,128.30
2023-03-20T04:59:39.378Z,119.15
2023-03-20T05:02:07.105Z,117.93
2023-03-20T05:04:34.946Z,117.07
2023-03-20T05:07:03.072Z,121.28
2023-03-20T05:09:39.233Z,119.83
2023-03-20T05:12:09.787Z,116.00
2023-03-20T05:15:00.472Z,121.03
2023-03-20T05:17:39.674Z,111.60
2023-03-20T05:20:21.264Z,107.97
2023-03-20T05:23:03.454Z,115.20
2023-03-20T05:25:56.333Z,111.47
2023-03-20T05:28:42.448Z,115.47
2023-03-20T05:31:17.795Z,111.78
2023-03-20T05:34:00.384Z,118.53
2023-03-20T05:36:57.307Z,112.37
2023-03-20T05:39:27.408Z,119.88
2023-03-20T05:42:13.614Z,116.85
2023-03-20T05:45:07.568Z,115.07
2023-03-20T05:48:01.052Z,114.88
2023-03-20T05:50:51.612Z,107.18
2023-03-20T05:53:37.611Z,104.25
2023-03-20T05:59:13.880Z,75.63
2023-03-20T06:05:08.773Z,75.50
2023-03-20T06:07:45.036Z,82.50
2023-03-20T06:10:15.180Z,78.05
2023-03-20T06:12:43.943Z,82.18
2023-03-20T06:15:12.145Z,73.60
2023-03-20T06:17:44.190Z,68.90
2023-03-20T06:20:14.385Z,66.55
2023-03-20T06:22:42.122Z,66.55
2023-03-20T06:25:09.811Z,71.18
2023-03-20T06:27:41.620Z,63.65
2023-03-20T06:30:10.487Z,60.80
2023-03-20T06:32:38.593Z,64.45
2023-03-20T06:35:09.595Z,65.47
2023-03-20T06:37:37.989Z,66.15
2023-03-20T06:40:11.574Z,62.30
2023-03-20T06:42:39.208Z,56.63
2023-03-20T06:45:08.287Z,58.90
2023-03-20T06:47:57.300Z,57.28
2023-03-20T06:50:24.720Z,53.15
2023-03-20T06:52:52.683Z,55.00
2023-03-20T06:55:38.642Z,50.80
2023-03-20T06:58:06.790Z,56.17
2023-03-20T07:00:35.770Z,54.30
2023-03-20T07:03:05.928Z,56.60
2023-03-20T07:05:34.039Z,50.10
2023-03-20T07:08:05.919Z,57.13
2023-03-20T07:10:34.083Z,61.47
2023-03-20T07:13:01.994Z,51.28
2023-03-20T07:15:30.229Z,62.50
2023-03-20T07:17:58.188Z,57.53
2023-03-20T07:20:27.987Z,51.70
2023-03-20T07:22:55.851Z,51.45
2023-03-20T07:25:41.496Z,51.30
2023-03-20T07:28:12.626Z,50.27
2023-03-20T07:30:43.635Z,52.50
2023-03-20T07:33:11.955Z,47.95
2023-03-20T07:35:39.980Z,54.50
2023-03-20T07:38:09.543Z,48.92
2023-03-20T07:40:46.166Z,53.25
2023-03-20T07:43:17.517Z,47.72
2023-03-20T07:46:09.591Z,50.15
2023-03-20T07:48:39.064Z,47.40
2023-03-20T07:51:06.722Z,47.15
2023-03-20T07:53:34.298Z,48.85
2023-03-20T07:56:01.686Z,48.88
2023-03-20T07:58:34.902Z,45.28
2023-03-20T08:01:03.850Z,48.20
2023-03-20T08:03:32.136Z,45.42
2023-03-20T08:05:59.527Z,43.80
2023-03-20T08:08:27.077Z,46.95
2023-03-20T08:10:54.406Z,46.70
2023-03-20T08:13:21.817Z,45.67
2023-03-20T08:15:48.923Z,46.33
2023-03-20T08:18:16.342Z,43.22
2023-03-20T08:20:43.590Z,46.75
2023-03-20T08:23:11.861Z,54.88
2023-03-20T08:25:39.376Z,45.55
2023-03-20T08:28:06.922Z,52.78
2023-03-20T08:30:34.169Z,54.28
2023-03-20T08:33:02.232Z,46.50
2023-03-20T08:35:33.312Z,48.10
2023-03-20T08:38:02.072Z,46.63
2023-03-20T08:40:29.506Z,41.72
2023-03-20T08:42:57.462Z,47.92
2023-03-20T08:45:26.324Z,46.97
2023-03-20T08:47:53.883Z,50.30
2023-03-20T08:50:21.224Z,49.83
2023-03-20T08:52:48.633Z,47.22
2023-03-20T08:55:16.907Z,47.40
2023-03-20T08:57:44.374Z,44.03
2023-03-20T09:00:14.490Z,46.95
2023-03-20T09:02:43.666Z,44.17
2023-03-20T09:05:11.337Z,42.83
2023-03-20T09:07:38.810Z,44.55
2023-03-20T09:10:06.509Z,36.75
2023-03-20T09:12:34.468Z,44.03
2023-03-20T09:15:02.446Z,36.17
2023-03-20T09:17:31.317Z,37.90
2023-03-20T09:19:58.598Z,38.38
2023-03-20T09:22:26.276Z,38.88
2023-03-20T09:24:53.546Z,34.83
2023-03-20T09:27:21.687Z,35.75
2023-03-20T09:29:48.833Z,29.67
2023-03-20T09:32:16.404Z,32.42
2023-03-20T09:34:43.668Z,31.77
2023-03-20T09:37:11.184Z,37.08
2023-03-20T09:39:38.374Z,31.92
2023-03-20T09:42:43.885Z,37.35
2023-03-20T09:45:34.246Z,34.25
2023-03-20T09:48:13.367Z,38.03
2023-03-20T09:50:55.866Z,37.28
2023-03-20T09:53:34.520Z,35.30
2023-03-20T09:56:01.972Z,37.97
2023-03-20T09:58:40.201Z,35.53
2023-03-20T10:01:12.777Z,32.80
2023-03-20T10:03:44.316Z,32.78
2023-03-20T10:06:16.930Z,35.38
2023-03-20T10:08:46.028Z,37.20
2023-03-20T10:11:28.145Z,35.28
2023-03-20T10:14:16.291Z,35.83
2023-03-20T10:17:02.133Z,32.78
2023-03-20T10:19:32.520Z,31.40
2023-03-20T10:22:29.418Z,34.13
2023-03-20T10:25:19.791Z,33.28
2023-03-20T10:27:52.763Z,33.22
2023-03-20T10:30:47.970Z,29.70
2023-03-20T10:33:43.201Z,36.03
2023-03-20T10:36:31.622Z,33.15
2023-03-20T10:39:04.758Z,33.03
2023-03-20T10:41:38.248Z,32.83
2023-03-20T10:44:10.513Z,30.60
2023-03-20T10:46:44.817Z,34.17
2023-03-20T10:49:20.420Z,32.53
2023-03-20T10:52:02.592Z,28.97
2023-03-20T10:54:39.477Z,34.30
2023-03-20T10:57:22.806Z,32.80
2023-03-20T10:59:56.246Z,30.33
2023-03-20T11:02:29.200Z,35.28
2023-03-20T11:04:57.149Z,36.00
2023-03-20T11:07:27.886Z,33.30
2023-03-20T11:10:10.958Z,34.85
2023-03-20T11:12:42.073Z,34.28
2023-03-20T11:15:33.538Z,35.80
2023-03-20T11:18:04.228Z,36.97
2023-03-20T11:20:38.888Z,36.58
2023-03-20T11:23:08.622Z,35.05
2023-03-20T11:25:46.879Z,33.72
2023-03-20T11:28:38.357Z,39.40
2023-03-20T11:31:13.742Z,31.65
2023-03-20T11:33:44.893Z,27.52
2023-03-20T11:36:30.026Z,25.70
2023-03-20T11:39:14.582Z,32.20
2023-03-20T11:41:46.008Z,31.30
2023-03-20T11:44:35.758Z,34.63
2023-03-20T11:47:05.821Z,33.80
2023-03-20T11:49:45.826Z,37.88
2023-03-20T11:52:15.781Z,40.38
2023-03-20T11:54:49.784Z,33.33
2023-03-20T11:57:39.002Z,33.15
2023-03-20T12:00:11.139Z,34.60
2023-03-20T12:02:41.357Z,38.20
2023-03-20T12:05:36.724Z,45.38
2023-03-20T12:08:16.459Z,42.38
2023-03-20T12:10:49.248Z,40.13
2023-03-20T12:13:32.181Z,40.95
2023-03-20T12:16:04.265Z,39.35
2023-03-20T12:18:51.173Z,40.15
2023-03-20T12:21:23.569Z,45.45
2023-03-20T12:23:57.146Z,42.40
2023-03-20T12:26:29.042Z,38.53
2023-03-20T12:29:02.687Z,34.20
2023-03-20T12:31:39.723Z,36.67
2023-03-20T12:34:20.677Z,39.40
2023-03-20T12:36:49.664Z,35.20
2023-03-20T12:39:25.261Z,38.25
2023-03-20T12:42:16.325Z,39.93
2023-03-20T12:44:49.606Z,37.13
2023-03-20T12:47:24.125Z,34.08
2023-03-20T12:50:04.632Z,35.58
2023-03-20T12:52:48.140Z,32.67
2023-03-20T12:55:18.187Z,31.73
2023-03-20T12:57:51.766Z,31.13
2023-03-20T13:00:33.409Z,32.03
2023-03-20T13:03:15.430Z,29.63
2023-03-20T13:06:07.572Z,29.30
2023-03-20T13:08:47.514Z,27.63
2023-03-20T13:11:24.584Z,26.10
2023-03-20T13:14:02.586Z,22.00
2023-03-20T13:16:51.505Z,22.58
2023-03-20T13:19:57.976Z,22.85
2023-03-20T13:23:03.785Z,23.60
2023-03-20T13:25:56.466Z,21.40
2023-03-20T13:28:45.045Z,23.55
2023-03-20T13:31:30.996Z,23.42
2023-03-20T13:34:34.964Z,27.17
2023-03-20T13:37:24.390Z,22.35
2023-03-20T13:39:57.584Z,24.23
2023-03-20T13:42:32.936Z,26.92
2023-03-20T13:45:21.724Z,36.15
2023-03-20T13:47:51.310Z,36.83
2023-03-20T13:50:42.697Z,28.77
2023-03-20T13:53:31.944Z,24.42
2023-03-20T13:56:26.181Z,25.08
2023-03-20T13:59:37.041Z,25.95
2023-03-20T14:02:04.239Z,23.40
2023-03-20T14:04:32.665Z,22.77
2023-03-20T14:06:59.955Z,21.95
2023-03-20T14:09:35.863Z,21.42
2023-03-20T14:12:09.558Z,24.17
2023-03-20T14:14:43.414Z,23.70
2023-03-20T14:17:26.111Z,27.02
2023-03-20T14:19:55.061Z,23.35
2023-03-20T14:22:30.511Z,26.20
2023-03-20T14:25:00.763Z,18.95
2023-03-20T14:27:43.677Z,25.27
2023-03-20T14:30:30.692Z,22.20
2023-03-20T14:33:23.343Z,25.05
2023-03-20T14:36:27.558Z,19.98
2023-03-20T14:39:18.449Z,24.92
2023-03-20T14:42:07.058Z,22.88
2023-03-20T14:44:52.641Z,24.83
2023-03-20T14:47:34.197Z,28.60
2023-03-20T14:50:01.285Z,24.15
2023-03-20T14:52:44.028Z,26.83
2023-03-20T14:55:28.693Z,27.63
2023-03-20T14:57:57.469Z,27.70
2023-03-20T15:00:34.232Z,29.33
2023-03-20T15:03:15.674Z,30.35
2023-03-20T15:05:43.418Z,31.80
2023-03-20T15:08:21.618Z,36.75
2023-03-20T15:10:58.871Z,30.27
2023-03-20T15:13:27.741Z,30.52
2023-03-20T15:16:05.284Z,29.88
2023-03-20T15:18:40.753Z,32.47
2023-03-20T15:21:31.158Z,31.58
2023-03-20T15:23:59.270Z,30.75
2023-03-20T15:26:28.082Z,29.08
2023-03-20T15:29:06.751Z,29.70
2023-03-20T15:31:37.055Z,31.38
2023-03-20T15:34:09.407Z,32.55
2023-03-20T15:36:39.926Z,35.55
2023-03-20T15:39:15.077Z,34.63
2023-03-20T15:41:47.280Z,33.00
2023-03-20T15:44:37.392Z,33.00
2023-03-20T15:47:10.284Z,32.90
2023-03-20T15:49:43.272Z,32.95
2023-03-20T15:52:18.397Z,33.67
2023-03-20T15:54:47.207Z,35.50
2023-03-20T15:57:20.501Z,33.80
2023-03-20T15:59:47.995Z,35.50
2023-03-20T16:02:15.501Z,36.05
2023-03-20T16:04:50.487Z,34.63
2023-03-20T16:07:31.914Z,31.50
2023-03-20T16:10:00.325Z,33.65
2023-03-20T16:12:28.299Z,39.88
2023-03-20T16:14:58.052Z,34.85
2023-03-20T16:17:26.795Z,36.33
2023-03-20T16:19:54.465Z,35.78
2023-03-20T16:22:26.438Z,36.65
2023-03-20T16:25:00.811Z,38.28
2023-03-20T16:27:34.709Z,44.33
2023-03-20T16:30:26.400Z,38.95
2023-03-20T16:33:10.434Z,33.85
2023-03-20T16:35:50.464Z,35.55
2023-03-20T16:38:29.394Z,32.20
2023-03-20T16:41:15.753Z,34.75
2023-03-20T16:43:49.423Z,34.80
2023-03-20T16:46:26.601Z,38.28
2023-03-20T16:51:29.340Z,44.53
2023-03-20T16:54:01.573Z,42.20
2023-03-20T16:56:30.085Z,41.67
2023-03-20T16:58:57.360Z,45.67
2023-03-20T17:01:28.588Z,42.15
2023-03-20T17:03:58.803Z,40.35
2023-03-20T17:06:38.506Z,39.13
2023-03-20T17:09:28.779Z,41.33
2023-03-20T17:12:14.401Z,40.55
2023-03-20T17:14:41.788Z,33.53
2023-03-20T17:17:21.232Z,36.03
2023-03-20T17:19:53.183Z,33.65
2023-03-20T17:22:23.761Z,38.25
2023-03-20T17:24:51.344Z,40.40
2023-03-20T17:27:20.438Z,38.55
2023-03-20T17:29:50.987Z,43.30
2023-03-20T17:32:21.172Z,36.47
2023-03-20T17:34:48.297Z,41.10
2023-03-20T17:37:20.460Z,40.58
2023-03-20T17:39:47.834Z,40.67
2023-03-20T17:42:21.036Z,41.70
2023-03-20T17:44:49.144Z,45.88
2023-03-20T17:47:19.380Z,40.15
2023-03-20T17:49:46.818Z,44.92
2023-03-20T17:52:16.426Z,41.80
2023-03-20T17:54:44.110Z,40.47
2023-03-20T17:57:22.185Z,35.92
2023-03-20T17:59:52.883Z,40.38
2023-03-20T18:02:20.450Z,45.17
2023-03-20T18:04:48.235Z,44.28
2023-03-20T18:07:17.190Z,63.08
2023-03-20T18:09:45.614Z,46.38
2023-03-20T18:12:16.588Z,54.55
2023-03-20T18:14:45.349Z,45.90
2023-03-20T18:17:15.055Z,49.63
2023-03-20T18:19:43.626Z,39.45
2023-03-20T18:22:11.394Z,38.20
2023-03-20T18:24:44.031Z,58.55
2023-03-20T18:27:13.073Z,40.70
2023-03-20T18:29:40.860Z,46.60
2023-03-20T18:32:09.358Z,41.70
2023-03-20T18:34:36.702Z,38.88
2023-03-20T18:37:07.723Z,48.80
2023-03-20T18:39:34.953Z,42.33
2023-03-20T18:42:02.444Z,47.90
2023-03-20T18:44:29.690Z,47.70
2023-03-20T18:46:57.165Z,44.17
2023-03-20T18:49:24.435Z,50.25
2023-03-20T18:51:53.281Z,45.70
2023-03-20T18:54:20.711Z,46.15
2023-03-20T18:56:49.914Z,44.35
2023-03-20T18:59:17.105Z,46.92
2023-03-20T19:01:44.648Z,54.75
2023-03-20T19:04:12.108Z,56.30
2023-03-20T19:06:39.849Z,56.30
2023-03-20T19:09:07.486Z,51.03
2023-03-20T19:11:35.098Z,68.30
2023-03-20T19:14:02.259Z,57.70
2023-03-20T19:16:41.357Z,56.58
2023-03-20T19:19:11.932Z,57.42
2023-03-20T19:21:39.411Z,64.30
2023-03-20T19:24:07.809Z,65.20
2023-03-20T19:26:36.807Z,58.97
2023-03-20T19:29:10.211Z,69.13
2023-03-20T19:31:37.963Z,64.22
2023-03-20T19:34:06.540Z,64.65
2023-03-20T19:36:36.496Z,64.85
2023-03-20T19:39:06.467Z,69.55
2023-03-20T19:41:34.256Z,67.18
2023-03-20T19:44:01.769Z,64.78
2023-03-20T19:46:40.294Z,69.32
2023-03-20T19:49:20.072Z,70.78
2023-03-20T19:51:49.534Z,71.85
2023-03-20T19:54:17.234Z,62.92
2023-03-20T19:56:44.811Z,68.45
2023-03-20T19:59:14.269Z,57.40
2023-03-20T20:01:45.297Z,62.33
2023-03-20T20:04:13.211Z,54.22
2023-03-20T20:06:41.823Z,54.50
2023-03-20T20:09:09.326Z,42.78
2023-03-20T20:11:36.724Z,37.13
2023-03-20T20:14:08.198Z,30.65
2023-03-20T20:16:39.690Z,25.65
2023-03-20T20:19:07.422Z,24.35
2023-03-20T20:24:22.359Z,21.67
2023-03-20T20:27:07.057Z,23.52
2023-03-20T20:29:40.307Z,45.13
2023-03-20T20:32:07.733Z,23.85
2023-03-20T20:42:38.659Z,21.48
2023-03-20T20:45:08.123Z,17.75
2023-03-20T20:47:35.759Z,17.92
2023-03-20T20:50:04.134Z,17.30
2023-03-20T20:52:35.860Z,16.50
2023-03-20T20:55:19.268Z,17.80
2023-03-20T20:57:49.422Z,17.45
2023-03-20T21:00:17.913Z,18.20
2023-03-20T21:02:45.520Z,19.98
2023-03-20T21:05:14.793Z,19.88
2023-03-20T21:07:44.684Z,19.58
2023-03-20T21:10:14.093Z,20.92
2023-03-20T21:12:57.778Z,19.45
2023-03-20T21:15:25.724Z,20.20
2023-03-20T21:18:00.391Z,44.78
2023-03-20T21:20:28.212Z,32.03
2023-03-20T21:22:55.657Z,24.30
2023-03-20T21:25:36.255Z,18.50
2023-03-20T21:28:06.878Z,20.67
2023-03-20T21:30:34.334Z,20.10
2023-03-20T21:33:03.291Z,23.02
2023-03-20T21:35:30.688Z,26.15
2023-03-20T21:38:55.445Z,24.23
2023-03-20T21:40:45.782Z,27.40
2023-03-20T21:43:16.096Z,26.38
2023-03-20T21:46:30.814Z,30.17
2023-03-20T21:49:06.900Z,20.13
2023-03-20T21:52:24.000Z,23.45
2023-03-20T22:02:32.237Z,28.75
2023-03-20T22:05:43.053Z,28.73
2023-03-20T22:08:38.832Z,28.83
2023-03-20T22:14:19.078Z,17.58
2023-03-20T22:19:50.272Z,16.10
2023-03-20T22:33:51.297Z,27.10
2023-03-20T22:46:55.780Z,26.33
2023-03-20T22:49:23.252Z,24.55
2023-03-20T22:52:11.328Z,23.98
2023-03-20T22:54:39.236Z,23.33
2023-03-20T22:57:06.628Z,27.75
2023-03-20T22:59:34.096Z,22.70
2023-03-20T23:02:01.244Z,24.13
2023-03-20T23:04:30.135Z,19.88
2023-03-20T23:06:57.409Z,24.63
2023-03-20T23:09:24.946Z,22.95
2023-03-20T23:11:52.082Z,25.50
2023-03-20T23:14:22.273Z,24.10
2023-03-20T23:16:50.989Z,26.13
2023-03-20T23:19:18.601Z,19.52
2023-03-20T23:21:45.854Z,24.35
2023-03-20T23:24:13.231Z,18.02
2023-03-20T23:26:40.504Z,21.55
2023-03-20T23:29:07.989Z,18.75
2023-03-20T23:31:35.388Z,28.45
2023-03-20T23:34:02.803Z,22.38
2023-03-20T23:36:36.837Z,28.75
2023-03-20T23:39:10.036Z,30.92
2023-03-20T23:44:25.920Z,40.10
2023-03-20T23:46:54.735Z,42.63
2023-03-20T23:49:22.425Z,43.08
2023-03-20T23:51:49.621Z,39.33
2023-03-20T23:54:17.409Z,40.05
2023-03-20T23:56:44.624Z,35.15
2023-03-20T23:59:21.187Z,25.55
